sensor_id;sensor_type;location;lat;lon;timestamp;P1;durP1;ratioP1;P2;durP2;ratioP2
8708;SDS011;4391;48.678;9.280;2022-11-06T00:02:06;16.20;;;7.93;;
8708;SDS011;4391;48.678;9.280;2022-11-06T00:04:32;17.92;;;8.02;;
8708;SDS011;4391;48.678;9.280;2022-11-06T00:06:59;16.50;;;8.02;;
8708;SDS011;4391;48.678;9.280;2022-11-06T00:09:25;20.20;;;7.80;;
8708;SDS011;4391;48.678;9.280;2022-11-06T00:11:54;16.52;;;8.27;;
8708;SDS011;4391;48.678;9.280;2022-11-06T00:14:23;19.02;;;8.15;;
8708;SDS011;4391;48.678;9.280;2022-11-06T00:16:50;18.27;;;8.32;;
8708;SDS011;4391;48.678;9.280;2022-11-06T00:19:17;18.05;;;8.18;;
8708;SDS011;4391;48.678;9.280;2022-11-06T00:21:44;18.63;;;7.80;;
8708;SDS011;4391;48.678;9.280;2022-11-06T00:24:12;15.15;;;7.10;;
8708;SDS011;4391;48.678;9.280;2022-11-06T00:26:40;17.10;;;7.38;;
8708;SDS011;4391;48.678;9.280;2022-11-06T00:29:09;14.82;;;7.18;;
8708;SDS011;4391;48.678;9.280;2022-11-06T00:31:40;13.85;;;7.00;;
8708;SDS011;4391;48.678;9.280;2022-11-06T00:34:08;14.00;;;6.90;;
8708;SDS011;4391;48.678;9.280;2022-11-06T00:36:35;13.38;;;6.43;;
8708;SDS011;4391;48.678;9.280;2022-11-06T00:39:02;13.68;;;7.03;;
8708;SDS011;4391;48.678;9.280;2022-11-06T00:41:31;14.85;;;6.88;;
8708;SDS011;4391;48.678;9.280;2022-11-06T00:44:00;14.35;;;6.97;;
8708;SDS011;4391;48.678;9.280;2022-11-06T00:46:27;15.13;;;7.13;;
8708;SDS011;4391;48.678;9.280;2022-11-06T00:48:56;14.63;;;7.05;;
8708;SDS011;4391;48.678;9.280;2022-11-06T00:51:23;14.02;;;7.65;;
8708;SDS011;4391;48.678;9.280;2022-11-06T00:53:52;13.35;;;7.28;;
8708;SDS011;4391;48.678;9.280;2022-11-06T00:56:20;14.70;;;7.30;;
8708;SDS011;4391;48.678;9.280;2022-11-06T00:58:47;16.03;;;7.27;;
8708;SDS011;4391;48.678;9.280;2022-11-06T01:01:14;14.27;;;6.85;;
8708;SDS011;4391;48.678;9.280;2022-11-06T01:03:43;26.17;;;9.18;;
8708;SDS011;4391;48.678;9.280;2022-11-06T01:06:13;17.65;;;7.43;;
8708;SDS011;4391;48.678;9.280;2022-11-06T01:08:41;18.05;;;8.50;;
8708;SDS011;4391;48.678;9.280;2022-11-06T01:11:10;13.10;;;6.60;;
8708;SDS011;4391;48.678;9.280;2022-11-06T01:13:39;14.10;;;7.65;;
8708;SDS011;4391;48.678;9.280;2022-11-06T01:16:07;15.55;;;7.90;;
8708;SDS011;4391;48.678;9.280;2022-11-06T01:18:35;14.65;;;7.13;;
8708;SDS011;4391;48.678;9.280;2022-11-06T01:21:04;15.40;;;7.43;;
8708;SDS011;4391;48.678;9.280;2022-11-06T01:23:33;13.47;;;6.37;;
8708;SDS011;4391;48.678;9.280;2022-11-06T01:26:00;15.18;;;7.20;;
8708;SDS011;4391;48.678;9.280;2022-11-06T01:28:30;13.48;;;7.18;;
8708;SDS011;4391;48.678;9.280;2022-11-06T01:31:00;15.05;;;7.30;;
8708;SDS011;4391;48.678;9.280;2022-11-06T01:33:27;13.23;;;6.88;;
8708;SDS011;4391;48.678;9.280;2022-11-06T01:35:54;14.73;;;6.73;;
8708;SDS011;4391;48.678;9.280;2022-11-06T01:38:21;15.25;;;7.05;;
8708;SDS011;4391;48.678;9.280;2022-11-06T01:40:49;13.75;;;7.38;;
8708;SDS011;4391;48.678;9.280;2022-11-06T01:43:17;13.13;;;6.65;;
8708;SDS011;4391;48.678;9.280;2022-11-06T01:45:45;13.43;;;6.80;;
8708;SDS011;4391;48.678;9.280;2022-11-06T01:48:14;17.53;;;7.67;;
8708;SDS011;4391;48.678;9.280;2022-11-06T01:50:43;15.10;;;6.85;;
8708;SDS011;4391;48.678;9.280;2022-11-06T01:53:14;15.38;;;7.60;;
8708;SDS011;4391;48.678;9.280;2022-11-06T01:55:42;16.67;;;7.07;;
8708;SDS011;4391;48.678;9.280;2022-11-06T01:58:14;17.88;;;7.97;;
8708;SDS011;4391;48.678;9.280;2022-11-06T02:00:43;17.27;;;8.27;;
8708;SDS011;4391;48.678;9.280;2022-11-06T02:03:11;18.10;;;8.23;;
8708;SDS011;4391;48.678;9.280;2022-11-06T02:05:38;16.35;;;7.00;;
8708;SDS011;4391;48.678;9.280;2022-11-06T02:08:06;17.42;;;7.63;;
8708;SDS011;4391;48.678;9.280;2022-11-06T02:10:35;13.82;;;7.32;;
8708;SDS011;4391;48.678;9.280;2022-11-06T02:13:07;15.47;;;7.57;;
8708;SDS011;4391;48.678;9.280;2022-11-06T02:15:46;15.75;;;7.20;;
8708;SDS011;4391;48.678;9.280;2022-11-06T02:21:19;14.73;;;6.95;;
8708;SDS011;4391;48.678;9.280;2022-11-06T02:23:56;14.05;;;6.47;;
8708;SDS011;4391;48.678;9.280;2022-11-06T02:26:45;16.33;;;6.43;;
8708;SDS011;4391;48.678;9.280;2022-11-06T02:29:24;14.38;;;6.75;;
8708;SDS011;4391;48.678;9.280;2022-11-06T02:31:54;14.73;;;7.03;;
8708;SDS011;4391;48.678;9.280;2022-11-06T02:34:26;14.50;;;6.78;;
8708;SDS011;4391;48.678;9.280;2022-11-06T02:36:55;14.48;;;6.72;;
8708;SDS011;4391;48.678;9.280;2022-11-06T02:39:28;15.90;;;7.03;;
8708;SDS011;4391;48.678;9.280;2022-11-06T02:41:59;15.40;;;7.10;;
8708;SDS011;4391;48.678;9.280;2022-11-06T02:44:28;16.67;;;7.95;;
8708;SDS011;4391;48.678;9.280;2022-11-06T02:46:58;15.25;;;7.88;;
8708;SDS011;4391;48.678;9.280;2022-11-06T02:49:29;14.90;;;5.75;;
8708;SDS011;4391;48.678;9.280;2022-11-06T02:52:02;13.47;;;5.77;;
8708;SDS011;4391;48.678;9.280;2022-11-06T02:54:33;10.13;;;4.65;;
8708;SDS011;4391;48.678;9.280;2022-11-06T02:57:06;8.80;;;4.30;;
8708;SDS011;4391;48.678;9.280;2022-11-06T02:59:37;9.45;;;4.43;;
8708;SDS011;4391;48.678;9.280;2022-11-06T03:02:09;9.38;;;4.47;;
8708;SDS011;4391;48.678;9.280;2022-11-06T03:04:41;9.93;;;4.03;;
8708;SDS011;4391;48.678;9.280;2022-11-06T03:07:14;9.40;;;3.75;;
8708;SDS011;4391;48.678;9.280;2022-11-06T03:09:46;11.55;;;4.63;;
8708;SDS011;4391;48.678;9.280;2022-11-06T03:12:18;17.60;;;5.15;;
8708;SDS011;4391;48.678;9.280;2022-11-06T03:14:51;9.73;;;4.45;;
8708;SDS011;4391;48.678;9.280;2022-11-06T03:17:23;27.87;;;5.07;;
8708;SDS011;4391;48.678;9.280;2022-11-06T03:20:03;29.08;;;5.60;;
8708;SDS011;4391;48.678;9.280;2022-11-06T03:22:39;26.85;;;5.80;;
8708;SDS011;4391;48.678;9.280;2022-11-06T03:25:16;18.45;;;5.53;;
8708;SDS011;4391;48.678;9.280;2022-11-06T03:27:50;33.58;;;5.45;;
8708;SDS011;4391;48.678;9.280;2022-11-06T03:30:24;35.57;;;5.13;;
8708;SDS011;4391;48.678;9.280;2022-11-06T03:32:52;42.33;;;5.57;;
8708;SDS011;4391;48.678;9.280;2022-11-06T03:35:25;20.05;;;5.68;;
8708;SDS011;4391;48.678;9.280;2022-11-06T03:37:56;10.73;;;4.97;;
8708;SDS011;4391;48.678;9.280;2022-11-06T03:40:27;15.57;;;4.45;;
8708;SDS011;4391;48.678;9.280;2022-11-06T03:42:59;10.93;;;5.00;;
8708;SDS011;4391;48.678;9.280;2022-11-06T03:45:29;11.20;;;5.00;;
8708;SDS011;4391;48.678;9.280;2022-11-06T03:47:58;16.10;;;5.60;;
8708;SDS011;4391;48.678;9.280;2022-11-06T03:50:29;14.48;;;4.82;;
8708;SDS011;4391;48.678;9.280;2022-11-06T03:53:01;9.80;;;4.82;;
8708;SDS011;4391;48.678;9.280;2022-11-06T03:55:33;11.40;;;4.80;;
8708;SDS011;4391;48.678;9.280;2022-11-06T03:58:05;13.25;;;5.00;;
8708;SDS011;4391;48.678;9.280;2022-11-06T04:00:35;13.10;;;5.80;;
8708;SDS011;4391;48.678;9.280;2022-11-06T04:03:06;13.68;;;5.28;;
8708;SDS011;4391;48.678;9.280;2022-11-06T04:05:41;10.65;;;5.13;;
8708;SDS011;4391;48.678;9.280;2022-11-06T04:08:11;11.97;;;5.20;;
8708;SDS011;4391;48.678;9.280;2022-11-06T04:11:00;17.13;;;4.85;;
8708;SDS011;4391;48.678;9.280;2022-11-06T04:13:48;30.10;;;5.80;;
8708;SDS011;4391;48.678;9.280;2022-11-06T04:16:25;15.18;;;5.45;;
8708;SDS011;4391;48.678;9.280;2022-11-06T04:18:56;18.00;;;5.30;;
8708;SDS011;4391;48.678;9.280;2022-11-06T04:21:24;12.87;;;5.27;;
8708;SDS011;4391;48.678;9.280;2022-11-06T04:30:02;26.05;;;4.82;;
8708;SDS011;4391;48.678;9.280;2022-11-06T04:32:33;14.02;;;5.50;;
8708;SDS011;4391;48.678;9.280;2022-11-06T04:35:20;30.07;;;5.60;;
8708;SDS011;4391;48.678;9.280;2022-11-06T04:37:54;27.35;;;5.38;;
8708;SDS011;4391;48.678;9.280;2022-11-06T04:40:29;24.80;;;5.30;;
8708;SDS011;4391;48.678;9.280;2022-11-06T04:43:02;25.95;;;4.32;;
8708;SDS011;4391;48.678;9.280;2022-11-06T04:45:35;23.77;;;5.15;;
8708;SDS011;4391;48.678;9.280;2022-11-06T04:48:05;25.40;;;5.10;;
8708;SDS011;4391;48.678;9.280;2022-11-06T04:50:35;31.02;;;5.07;;
8708;SDS011;4391;48.678;9.280;2022-11-06T04:53:05;26.20;;;4.80;;
8708;SDS011;4391;48.678;9.280;2022-11-06T04:55:36;9.15;;;4.57;;
8708;SDS011;4391;48.678;9.280;2022-11-06T04:58:10;25.65;;;5.22;;
8708;SDS011;4391;48.678;9.280;2022-11-06T05:00:43;19.33;;;5.07;;
8708;SDS011;4391;48.678;9.280;2022-11-06T05:03:11;19.25;;;4.90;;
8708;SDS011;4391;48.678;9.280;2022-11-06T05:05:38;15.20;;;4.25;;
8708;SDS011;4391;48.678;9.280;2022-11-06T05:08:05;13.88;;;4.95;;
8708;SDS011;4391;48.678;9.280;2022-11-06T05:10:37;26.33;;;5.40;;
8708;SDS011;4391;48.678;9.280;2022-11-06T05:13:04;27.90;;;5.33;;
8708;SDS011;4391;48.678;9.280;2022-11-06T05:15:31;25.08;;;5.10;;
8708;SDS011;4391;48.678;9.280;2022-11-06T05:17:59;27.23;;;5.03;;
8708;SDS011;4391;48.678;9.280;2022-11-06T05:20:26;18.88;;;5.13;;
8708;SDS011;4391;48.678;9.280;2022-11-06T05:22:53;28.17;;;5.13;;
8708;SDS011;4391;48.678;9.280;2022-11-06T05:25:25;17.70;;;4.90;;
8708;SDS011;4391;48.678;9.280;2022-11-06T05:27:53;28.92;;;5.22;;
8708;SDS011;4391;48.678;9.280;2022-11-06T05:30:20;18.98;;;5.13;;
8708;SDS011;4391;48.678;9.280;2022-11-06T05:32:48;14.57;;;5.03;;
8708;SDS011;4391;48.678;9.280;2022-11-06T05:35:16;13.13;;;5.13;;
8708;SDS011;4391;48.678;9.280;2022-11-06T05:37:44;17.87;;;5.13;;
8708;SDS011;4391;48.678;9.280;2022-11-06T05:40:11;44.10;;;5.63;;
8708;SDS011;4391;48.678;9.280;2022-11-06T05:42:39;22.15;;;5.13;;
8708;SDS011;4391;48.678;9.280;2022-11-06T05:45:07;15.02;;;5.50;;
8708;SDS011;4391;48.678;9.280;2022-11-06T05:47:34;12.93;;;4.82;;
8708;SDS011;4391;48.678;9.280;2022-11-06T05:50:04;85.73;;;6.27;;
8708;SDS011;4391;48.678;9.280;2022-11-06T05:52:34;133.95;;;7.72;;
8708;SDS011;4391;48.678;9.280;2022-11-06T05:55:01;33.22;;;5.65;;
8708;SDS011;4391;48.678;9.280;2022-11-06T05:57:28;59.95;;;5.93;;
8708;SDS011;4391;48.678;9.280;2022-11-06T05:59:55;103.50;;;7.30;;
8708;SDS011;4391;48.678;9.280;2022-11-06T06:02:21;92.70;;;6.13;;
8708;SDS011;4391;48.678;9.280;2022-11-06T06:04:48;148.45;;;7.53;;
8708;SDS011;4391;48.678;9.280;2022-11-06T06:07:15;136.00;;;7.85;;
8708;SDS011;4391;48.678;9.280;2022-11-06T06:09:43;116.22;;;6.05;;
8708;SDS011;4391;48.678;9.280;2022-11-06T06:12:10;45.22;;;5.43;;
8708;SDS011;4391;48.678;9.280;2022-11-06T06:14:37;49.17;;;4.67;;
8708;SDS011;4391;48.678;9.280;2022-11-06T06:17:04;44.40;;;4.60;;
8708;SDS011;4391;48.678;9.280;2022-11-06T06:19:31;36.63;;;4.47;;
8708;SDS011;4391;48.678;9.280;2022-11-06T06:21:58;27.00;;;4.65;;
8708;SDS011;4391;48.678;9.280;2022-11-06T06:24:25;14.90;;;4.30;;
8708;SDS011;4391;48.678;9.280;2022-11-06T06:26:53;12.23;;;3.73;;
8708;SDS011;4391;48.678;9.280;2022-11-06T06:29:20;31.33;;;3.90;;
8708;SDS011;4391;48.678;9.280;2022-11-06T06:31:46;30.17;;;3.85;;
8708;SDS011;4391;48.678;9.280;2022-11-06T06:34:14;12.40;;;3.67;;
8708;SDS011;4391;48.678;9.280;2022-11-06T06:36:41;16.67;;;3.90;;
8708;SDS011;4391;48.678;9.280;2022-11-06T06:39:07;11.10;;;3.70;;
8708;SDS011;4391;48.678;9.280;2022-11-06T06:41:34;16.17;;;4.72;;
8708;SDS011;4391;48.678;9.280;2022-11-06T06:44:03;19.85;;;5.18;;
8708;SDS011;4391;48.678;9.280;2022-11-06T06:46:30;19.33;;;5.18;;
8708;SDS011;4391;48.678;9.280;2022-11-06T06:48:56;45.15;;;5.55;;
8708;SDS011;4391;48.678;9.280;2022-11-06T06:51:23;21.23;;;5.20;;
8708;SDS011;4391;48.678;9.280;2022-11-06T06:53:50;17.58;;;4.13;;
8708;SDS011;4391;48.678;9.280;2022-11-06T06:56:17;20.40;;;4.20;;
8708;SDS011;4391;48.678;9.280;2022-11-06T06:58:44;25.10;;;4.35;;
8708;SDS011;4391;48.678;9.280;2022-11-06T07:01:12;42.17;;;5.30;;
8708;SDS011;4391;48.678;9.280;2022-11-06T07:03:39;29.97;;;4.20;;
8708;SDS011;4391;48.678;9.280;2022-11-06T07:06:06;28.27;;;4.50;;
8708;SDS011;4391;48.678;9.280;2022-11-06T07:08:33;36.10;;;5.18;;
8708;SDS011;4391;48.678;9.280;2022-11-06T07:10:59;23.88;;;5.20;;
8708;SDS011;4391;48.678;9.280;2022-11-06T07:13:27;22.23;;;5.32;;
8708;SDS011;4391;48.678;9.280;2022-11-06T07:15:53;16.03;;;4.97;;
8708;SDS011;4391;48.678;9.280;2022-11-06T07:18:22;14.25;;;5.35;;
8708;SDS011;4391;48.678;9.280;2022-11-06T07:20:49;20.40;;;4.90;;
8708;SDS011;4391;48.678;9.280;2022-11-06T07:23:16;14.95;;;4.65;;
8708;SDS011;4391;48.678;9.280;2022-11-06T07:25:43;21.35;;;5.43;;
8708;SDS011;4391;48.678;9.280;2022-11-06T07:28:09;26.37;;;6.37;;
8708;SDS011;4391;48.678;9.280;2022-11-06T07:30:36;22.25;;;7.55;;
8708;SDS011;4391;48.678;9.280;2022-11-06T07:33:03;22.15;;;5.47;;
8708;SDS011;4391;48.678;9.280;2022-11-06T07:35:32;38.85;;;4.82;;
8708;SDS011;4391;48.678;9.280;2022-11-06T07:38:01;20.48;;;5.15;;
8708;SDS011;4391;48.678;9.280;2022-11-06T07:40:28;27.50;;;4.67;;
8708;SDS011;4391;48.678;9.280;2022-11-06T07:42:58;27.70;;;5.25;;
8708;SDS011;4391;48.678;9.280;2022-11-06T07:45:29;41.28;;;5.35;;
8708;SDS011;4391;48.678;9.280;2022-11-06T07:47:56;32.10;;;5.05;;
8708;SDS011;4391;48.678;9.280;2022-11-06T07:50:23;20.08;;;5.00;;
8708;SDS011;4391;48.678;9.280;2022-11-06T07:52:51;35.33;;;5.33;;
8708;SDS011;4391;48.678;9.280;2022-11-06T07:55:18;15.30;;;4.95;;
8708;SDS011;4391;48.678;9.280;2022-11-06T07:57:45;20.65;;;5.00;;
8708;SDS011;4391;48.678;9.280;2022-11-06T08:00:12;19.98;;;4.90;;
8708;SDS011;4391;48.678;9.280;2022-11-06T08:02:40;12.13;;;4.80;;
8708;SDS011;4391;48.678;9.280;2022-11-06T08:05:07;19.13;;;4.70;;
8708;SDS011;4391;48.678;9.280;2022-11-06T08:07:34;21.02;;;4.97;;
8708;SDS011;4391;48.678;9.280;2022-11-06T08:10:03;19.50;;;5.03;;
8708;SDS011;4391;48.678;9.280;2022-11-06T08:12:30;21.65;;;4.38;;
8708;SDS011;4391;48.678;9.280;2022-11-06T08:14:57;12.10;;;4.60;;
8708;SDS011;4391;48.678;9.280;2022-11-06T08:17:24;9.17;;;4.20;;
8708;SDS011;4391;48.678;9.280;2022-11-06T08:19:54;9.77;;;4.95;;
8708;SDS011;4391;48.678;9.280;2022-11-06T08:22:21;11.10;;;4.93;;
8708;SDS011;4391;48.678;9.280;2022-11-06T08:24:47;17.10;;;5.22;;
8708;SDS011;4391;48.678;9.280;2022-11-06T08:27:16;18.17;;;6.10;;
8708;SDS011;4391;48.678;9.280;2022-11-06T08:29:43;20.17;;;5.90;;
8708;SDS011;4391;48.678;9.280;2022-11-06T08:32:10;16.50;;;6.47;;
8708;SDS011;4391;48.678;9.280;2022-11-06T08:34:37;13.75;;;6.22;;
8708;SDS011;4391;48.678;9.280;2022-11-06T08:37:03;11.05;;;5.82;;
8708;SDS011;4391;48.678;9.280;2022-11-06T08:39:30;20.15;;;6.20;;
8708;SDS011;4391;48.678;9.280;2022-11-06T08:41:58;13.63;;;5.50;;
8708;SDS011;4391;48.678;9.280;2022-11-06T08:44:27;14.18;;;5.40;;
8708;SDS011;4391;48.678;9.280;2022-11-06T08:46:54;12.15;;;5.90;;
8708;SDS011;4391;48.678;9.280;2022-11-06T08:49:21;14.05;;;4.97;;
8708;SDS011;4391;48.678;9.280;2022-11-06T08:51:47;16.63;;;6.18;;
8708;SDS011;4391;48.678;9.280;2022-11-06T08:54:14;19.77;;;4.80;;
8708;SDS011;4391;48.678;9.280;2022-11-06T08:56:41;21.25;;;4.97;;
8708;SDS011;4391;48.678;9.280;2022-11-06T08:59:08;13.60;;;4.68;;
8708;SDS011;4391;48.678;9.280;2022-11-06T09:01:37;12.07;;;4.40;;
8708;SDS011;4391;48.678;9.280;2022-11-06T09:04:04;15.35;;;4.55;;
8708;SDS011;4391;48.678;9.280;2022-11-06T09:06:31;13.43;;;4.87;;
8708;SDS011;4391;48.678;9.280;2022-11-06T09:08:58;11.32;;;4.45;;
8708;SDS011;4391;48.678;9.280;2022-11-06T09:11:25;20.75;;;4.75;;
8708;SDS011;4391;48.678;9.280;2022-11-06T09:13:52;25.00;;;4.85;;
8708;SDS011;4391;48.678;9.280;2022-11-06T09:16:19;27.50;;;5.63;;
8708;SDS011;4391;48.678;9.280;2022-11-06T09:18:47;21.70;;;5.20;;
8708;SDS011;4391;48.678;9.280;2022-11-06T09:21:14;22.88;;;5.90;;
8708;SDS011;4391;48.678;9.280;2022-11-06T09:23:41;22.63;;;5.88;;
8708;SDS011;4391;48.678;9.280;2022-11-06T09:26:10;18.10;;;6.93;;
8708;SDS011;4391;48.678;9.280;2022-11-06T09:28:37;12.23;;;6.28;;
8708;SDS011;4391;48.678;9.280;2022-11-06T09:31:04;13.53;;;5.83;;
8708;SDS011;4391;48.678;9.280;2022-11-06T09:33:31;13.88;;;5.60;;
8708;SDS011;4391;48.678;9.280;2022-11-06T09:36:01;11.88;;;6.10;;
8708;SDS011;4391;48.678;9.280;2022-11-06T09:38:29;15.00;;;6.40;;
8708;SDS011;4391;48.678;9.280;2022-11-06T09:40:56;13.77;;;6.45;;
8708;SDS011;4391;48.678;9.280;2022-11-06T09:43:27;12.83;;;6.03;;
8708;SDS011;4391;48.678;9.280;2022-11-06T09:46:00;11.27;;;5.85;;
8708;SDS011;4391;48.678;9.280;2022-11-06T09:48:34;10.63;;;6.00;;
8708;SDS011;4391;48.678;9.280;2022-11-06T09:51:09;11.75;;;6.13;;
8708;SDS011;4391;48.678;9.280;2022-11-06T09:53:42;9.88;;;5.32;;
8708;SDS011;4391;48.678;9.280;2022-11-06T09:56:12;10.33;;;5.37;;
8708;SDS011;4391;48.678;9.280;2022-11-06T09:58:42;11.07;;;5.90;;
8708;SDS011;4391;48.678;9.280;2022-11-06T10:01:11;11.15;;;5.72;;
8708;SDS011;4391;48.678;9.280;2022-11-06T10:03:42;10.90;;;5.50;;
8708;SDS011;4391;48.678;9.280;2022-11-06T10:06:19;11.23;;;5.80;;
8708;SDS011;4391;48.678;9.280;2022-11-06T10:08:47;12.17;;;6.47;;
8708;SDS011;4391;48.678;9.280;2022-11-06T10:11:21;10.75;;;5.68;;
8708;SDS011;4391;48.678;9.280;2022-11-06T10:14:11;12.20;;;6.70;;
8708;SDS011;4391;48.678;9.280;2022-11-06T10:16:48;13.82;;;6.20;;
8708;SDS011;4391;48.678;9.280;2022-11-06T10:19:23;11.30;;;6.28;;
8708;SDS011;4391;48.678;9.280;2022-11-06T10:21:55;10.07;;;5.60;;
8708;SDS011;4391;48.678;9.280;2022-11-06T10:24:29;8.75;;;4.75;;
8708;SDS011;4391;48.678;9.280;2022-11-06T10:26:59;8.98;;;5.07;;
8708;SDS011;4391;48.678;9.280;2022-11-06T10:29:41;9.30;;;5.07;;
8708;SDS011;4391;48.678;9.280;2022-11-06T10:32:28;8.00;;;4.43;;
8708;SDS011;4391;48.678;9.280;2022-11-06T10:35:17;7.23;;;4.50;;
8708;SDS011;4391;48.678;9.280;2022-11-06T10:37:50;8.20;;;4.05;;
8708;SDS011;4391;48.678;9.280;2022-11-06T10:40:21;8.70;;;4.53;;
8708;SDS011;4391;48.678;9.280;2022-11-06T10:42:53;7.15;;;4.07;;
8708;SDS011;4391;48.678;9.280;2022-11-06T10:45:26;8.23;;;4.38;;
8708;SDS011;4391;48.678;9.280;2022-11-06T10:47:55;6.73;;;4.00;;
8708;SDS011;4391;48.678;9.280;2022-11-06T10:50:31;6.90;;;4.10;;
8708;SDS011;4391;48.678;9.280;2022-11-06T10:53:06;7.15;;;3.92;;
8708;SDS011;4391;48.678;9.280;2022-11-06T10:58:37;8.85;;;4.28;;
8708;SDS011;4391;48.678;9.280;2022-11-06T11:01:04;8.07;;;4.03;;
8708;SDS011;4391;48.678;9.280;2022-11-06T11:03:34;7.90;;;4.40;;
8708;SDS011;4391;48.678;9.280;2022-11-06T11:06:05;10.32;;;4.32;;
8708;SDS011;4391;48.678;9.280;2022-11-06T11:08:35;7.82;;;4.22;;
8708;SDS011;4391;48.678;9.280;2022-11-06T11:11:14;8.20;;;4.63;;
8708;SDS011;4391;48.678;9.280;2022-11-06T11:13:44;6.77;;;3.77;;
8708;SDS011;4391;48.678;9.280;2022-11-06T11:16:13;7.18;;;4.15;;
8708;SDS011;4391;48.678;9.280;2022-11-06T11:18:42;6.90;;;3.78;;
8708;SDS011;4391;48.678;9.280;2022-11-06T11:21:13;7.13;;;4.03;;
8708;SDS011;4391;48.678;9.280;2022-11-06T11:24:03;7.20;;;3.78;;
8708;SDS011;4391;48.678;9.280;2022-11-06T11:26:31;6.57;;;3.83;;
8708;SDS011;4391;48.678;9.280;2022-11-06T11:29:10;7.00;;;4.13;;
8708;SDS011;4391;48.678;9.280;2022-11-06T11:31:39;6.97;;;4.22;;
8708;SDS011;4391;48.678;9.280;2022-11-06T11:34:14;6.80;;;4.15;;
8708;SDS011;4391;48.678;9.280;2022-11-06T11:36:45;8.50;;;3.72;;
8708;SDS011;4391;48.678;9.280;2022-11-06T11:39:16;7.33;;;3.63;;
8708;SDS011;4391;48.678;9.280;2022-11-06T11:41:44;6.30;;;3.70;;
8708;SDS011;4391;48.678;9.280;2022-11-06T11:44:13;5.55;;;3.30;;
8708;SDS011;4391;48.678;9.280;2022-11-06T11:46:45;5.57;;;3.10;;
8708;SDS011;4391;48.678;9.280;2022-11-06T11:49:27;6.90;;;3.08;;
8708;SDS011;4391;48.678;9.280;2022-11-06T11:51:55;5.00;;;2.80;;
8708;SDS011;4391;48.678;9.280;2022-11-06T11:54:26;5.78;;;3.30;;
8708;SDS011;4391;48.678;9.280;2022-11-06T11:56:56;5.00;;;2.65;;
8708;SDS011;4391;48.678;9.280;2022-11-06T11:59:25;5.03;;;3.00;;
8708;SDS011;4391;48.678;9.280;2022-11-06T12:01:55;6.18;;;2.97;;
8708;SDS011;4391;48.678;9.280;2022-11-06T12:04:26;5.20;;;3.00;;
8708;SDS011;4391;48.678;9.280;2022-11-06T12:06:57;6.32;;;3.20;;
8708;SDS011;4391;48.678;9.280;2022-11-06T12:09:28;5.53;;;3.10;;
8708;SDS011;4391;48.678;9.280;2022-11-06T12:11:58;5.63;;;2.90;;
8708;SDS011;4391;48.678;9.280;2022-11-06T12:14:29;6.07;;;3.30;;
8708;SDS011;4391;48.678;9.280;2022-11-06T12:19:44;6.90;;;3.40;;
8708;SDS011;4391;48.678;9.280;2022-11-06T12:22:16;6.07;;;3.50;;
8708;SDS011;4391;48.678;9.280;2022-11-06T12:24:51;9.15;;;3.30;;
8708;SDS011;4391;48.678;9.280;2022-11-06T12:27:20;6.47;;;3.20;;
8708;SDS011;4391;48.678;9.280;2022-11-06T12:29:52;5.90;;;3.07;;
8708;SDS011;4391;48.678;9.280;2022-11-06T12:32:25;7.50;;;3.05;;
8708;SDS011;4391;48.678;9.280;2022-11-06T12:35:04;5.40;;;2.72;;
8708;SDS011;4391;48.678;9.280;2022-11-06T12:37:39;5.80;;;2.80;;
8708;SDS011;4391;48.678;9.280;2022-11-06T12:40:17;4.47;;;2.53;;
8708;SDS011;4391;48.678;9.280;2022-11-06T12:42:51;5.27;;;2.70;;
8708;SDS011;4391;48.678;9.280;2022-11-06T12:45:33;5.18;;;2.55;;
8708;SDS011;4391;48.678;9.280;2022-11-06T12:48:21;5.18;;;2.80;;
8708;SDS011;4391;48.678;9.280;2022-11-06T12:50:59;4.80;;;2.58;;
8708;SDS011;4391;48.678;9.280;2022-11-06T12:53:33;4.75;;;2.50;;
8708;SDS011;4391;48.678;9.280;2022-11-06T12:56:14;4.50;;;2.50;;
8708;SDS011;4391;48.678;9.280;2022-11-06T12:58:50;4.55;;;2.38;;
8708;SDS011;4391;48.678;9.280;2022-11-06T13:01:29;5.07;;;2.80;;
8708;SDS011;4391;48.678;9.280;2022-11-06T13:07:22;4.57;;;2.55;;
8708;SDS011;4391;48.678;9.280;2022-11-06T13:10:02;9.57;;;2.30;;
8708;SDS011;4391;48.678;9.280;2022-11-06T13:12:41;5.45;;;2.80;;
8708;SDS011;4391;48.678;9.280;2022-11-06T13:15:18;4.35;;;2.40;;
8708;SDS011;4391;48.678;9.280;2022-11-06T13:17:52;6.40;;;2.42;;
8708;SDS011;4391;48.678;9.280;2022-11-06T13:20:24;4.47;;;2.28;;
8708;SDS011;4391;48.678;9.280;2022-11-06T13:22:56;4.50;;;2.33;;
8708;SDS011;4391;48.678;9.280;2022-11-06T13:25:31;4.82;;;2.47;;
8708;SDS011;4391;48.678;9.280;2022-11-06T13:28:18;5.05;;;2.55;;
8708;SDS011;4391;48.678;9.280;2022-11-06T13:30:51;8.15;;;2.60;;
8708;SDS011;4391;48.678;9.280;2022-11-06T13:33:21;4.88;;;2.10;;
8708;SDS011;4391;48.678;9.280;2022-11-06T13:35:51;4.50;;;2.40;;
8708;SDS011;4391;48.678;9.280;2022-11-06T13:38:21;5.10;;;2.40;;
8708;SDS011;4391;48.678;9.280;2022-11-06T13:40:52;4.65;;;2.35;;
8708;SDS011;4391;48.678;9.280;2022-11-06T13:43:24;4.80;;;2.28;;
8708;SDS011;4391;48.678;9.280;2022-11-06T13:45:55;5.15;;;2.40;;
8708;SDS011;4391;48.678;9.280;2022-11-06T13:48:35;5.10;;;2.30;;
8708;SDS011;4391;48.678;9.280;2022-11-06T13:51:11;4.97;;;2.35;;
8708;SDS011;4391;48.678;9.280;2022-11-06T13:53:47;4.53;;;2.40;;
8708;SDS011;4391;48.678;9.280;2022-11-06T13:56:26;3.95;;;2.17;;
8708;SDS011;4391;48.678;9.280;2022-11-06T13:59:35;5.97;;;2.40;;
8708;SDS011;4391;48.678;9.280;2022-11-06T14:02:28;4.47;;;1.97;;
8708;SDS011;4391;48.678;9.280;2022-11-06T14:08:10;4.75;;;2.25;;
8708;SDS011;4391;48.678;9.280;2022-11-06T14:10:46;4.57;;;2.28;;
8708;SDS011;4391;48.678;9.280;2022-11-06T14:13:23;4.40;;;2.20;;
8708;SDS011;4391;48.678;9.280;2022-11-06T14:16:01;5.20;;;2.53;;
8708;SDS011;4391;48.678;9.280;2022-11-06T14:18:33;4.93;;;2.50;;
8708;SDS011;4391;48.678;9.280;2022-11-06T14:24:15;4.40;;;1.85;;
8708;SDS011;4391;48.678;9.280;2022-11-06T14:26:53;4.68;;;2.20;;
8708;SDS011;4391;48.678;9.280;2022-11-06T14:32:34;8.27;;;5.07;;
8708;SDS011;4391;48.678;9.280;2022-11-06T14:38:16;5.35;;;2.40;;
8708;SDS011;4391;48.678;9.280;2022-11-06T14:40:59;7.68;;;4.53;;
8708;SDS011;4391;48.678;9.280;2022-11-06T14:43:27;9.60;;;6.20;;
8708;SDS011;4391;48.678;9.280;2022-11-06T14:45:57;7.85;;;4.55;;
8708;SDS011;4391;48.678;9.280;2022-11-06T14:48:30;5.60;;;3.03;;
8708;SDS011;4391;48.678;9.280;2022-11-06T14:50:59;5.78;;;2.83;;
8708;SDS011;4391;48.678;9.280;2022-11-06T14:53:30;13.75;;;7.15;;
8708;SDS011;4391;48.678;9.280;2022-11-06T14:56:00;5.67;;;2.70;;
8708;SDS011;4391;48.678;9.280;2022-11-06T14:58:30;9.02;;;3.28;;
8708;SDS011;4391;48.678;9.280;2022-11-06T15:00:59;5.18;;;2.65;;
8708;SDS011;4391;48.678;9.280;2022-11-06T15:03:34;6.32;;;3.25;;
8708;SDS011;4391;48.678;9.280;2022-11-06T15:06:06;4.40;;;2.20;;
8708;SDS011;4391;48.678;9.280;2022-11-06T15:08:51;5.47;;;2.20;;
8708;SDS011;4391;48.678;9.280;2022-11-06T15:17:20;5.45;;;2.60;;
8708;SDS011;4391;48.678;9.280;2022-11-06T15:19:51;5.05;;;2.55;;
8708;SDS011;4391;48.678;9.280;2022-11-06T15:22:26;5.13;;;2.40;;
8708;SDS011;4391;48.678;9.280;2022-11-06T15:24:58;4.47;;;2.20;;
8708;SDS011;4391;48.678;9.280;2022-11-06T15:27:32;5.57;;;2.22;;
8708;SDS011;4391;48.678;9.280;2022-11-06T15:30:09;7.65;;;2.65;;
8708;SDS011;4391;48.678;9.280;2022-11-06T15:32:41;4.60;;;2.22;;
8708;SDS011;4391;48.678;9.280;2022-11-06T15:35:11;3.93;;;1.83;;
8708;SDS011;4391;48.678;9.280;2022-11-06T15:37:42;4.22;;;1.77;;
8708;SDS011;4391;48.678;9.280;2022-11-06T15:40:21;4.95;;;2.13;;
8708;SDS011;4391;48.678;9.280;2022-11-06T15:42:49;6.00;;;2.90;;
8708;SDS011;4391;48.678;9.280;2022-11-06T15:45:20;6.47;;;3.05;;
8708;SDS011;4391;48.678;9.280;2022-11-06T15:47:52;10.30;;;4.53;;
8708;SDS011;4391;48.678;9.280;2022-11-06T15:50:23;9.75;;;5.35;;
8708;SDS011;4391;48.678;9.280;2022-11-06T15:52:51;11.10;;;6.05;;
8708;SDS011;4391;48.678;9.280;2022-11-06T15:55:25;8.45;;;4.85;;
8708;SDS011;4391;48.678;9.280;2022-11-06T15:57:53;11.20;;;6.25;;
8708;SDS011;4391;48.678;9.280;2022-11-06T16:00:31;8.33;;;3.97;;
8708;SDS011;4391;48.678;9.280;2022-11-06T16:03:02;7.97;;;3.80;;
8708;SDS011;4391;48.678;9.280;2022-11-06T16:05:34;8.82;;;4.68;;